sensor_id;sensor_type;location;lat;lon;timestamp;P1;durP1;ratioP1;P2;durP2;ratioP2
29294;SDS011;16305;48.566;8.846;2022-08-25T00:00:45;2.90;;;2.60;;
29294;SDS011;16305;48.566;8.846;2022-08-25T00:03:13;3.00;;;2.30;;
29294;SDS011;16305;48.566;8.846;2022-08-25T00:05:39;2.23;;;2.10;;
29294;SDS011;16305;48.566;8.846;2022-08-25T00:08:05;2.40;;;2.20;;
29294;SDS011;16305;48.566;8.846;2022-08-25T00:10:35;2.50;;;2.30;;
29294;SDS011;16305;48.566;8.846;2022-08-25T00:13:03;2.53;;;2.33;;
29294;SDS011;16305;48.566;8.846;2022-08-25T00:15:29;2.70;;;2.50;;
29294;SDS011;16305;48.566;8.846;2022-08-25T00:17:56;2.60;;;2.40;;
29294;SDS011;16305;48.566;8.846;2022-08-25T00:20:23;2.63;;;2.40;;
29294;SDS011;16305;48.566;8.846;2022-08-25T00:22:49;2.37;;;2.17;;
29294;SDS011;16305;48.566;8.846;2022-08-25T00:25:16;3.47;;;2.07;;
29294;SDS011;16305;48.566;8.846;2022-08-25T00:27:42;2.33;;;2.13;;
29294;SDS011;16305;48.566;8.846;2022-08-25T00:30:08;2.77;;;2.30;;
29294;SDS011;16305;48.566;8.846;2022-08-25T00:32:34;2.60;;;2.40;;
29294;SDS011;16305;48.566;8.846;2022-08-25T00:35:00;2.53;;;2.33;;
29294;SDS011;16305;48.566;8.846;2022-08-25T00:37:27;2.57;;;2.37;;
29294;SDS011;16305;48.566;8.846;2022-08-25T00:39:52;2.50;;;2.30;;
29294;SDS011;16305;48.566;8.846;2022-08-25T00:42:21;2.80;;;2.60;;
29294;SDS011;16305;48.566;8.846;2022-08-25T00:44:47;2.57;;;2.37;;
29294;SDS011;16305;48.566;8.846;2022-08-25T00:47:13;2.80;;;2.27;;
29294;SDS011;16305;48.566;8.846;2022-08-25T00:49:44;2.90;;;2.60;;
29294;SDS011;16305;48.566;8.846;2022-08-25T00:52:17;2.97;;;2.67;;
29294;SDS011;16305;48.566;8.846;2022-08-25T00:54:51;2.97;;;2.57;;
29294;SDS011;16305;48.566;8.846;2022-08-25T00:57:31;3.67;;;3.13;;
29294;SDS011;16305;48.566;8.846;2022-08-25T00:59:59;3.73;;;2.50;;
29294;SDS011;16305;48.566;8.846;2022-08-25T01:02:25;2.40;;;2.20;;
29294;SDS011;16305;48.566;8.846;2022-08-25T01:04:51;2.67;;;2.47;;
29294;SDS011;16305;48.566;8.846;2022-08-25T01:07:17;4.00;;;2.10;;
29294;SDS011;16305;48.566;8.846;2022-08-25T01:09:45;3.00;;;2.70;;
29294;SDS011;16305;48.566;8.846;2022-08-25T01:12:13;3.17;;;2.60;;
29294;SDS011;16305;48.566;8.846;2022-08-25T01:14:39;2.63;;;2.43;;
29294;SDS011;16305;48.566;8.846;2022-08-25T01:17:05;2.90;;;2.60;;
29294;SDS011;16305;48.566;8.846;2022-08-25T01:19:31;3.43;;;2.50;;
29294;SDS011;16305;48.566;8.846;2022-08-25T01:21:58;3.03;;;2.70;;
29294;SDS011;16305;48.566;8.846;2022-08-25T01:24:34;4.87;;;2.70;;
29294;SDS011;16305;48.566;8.846;2022-08-25T01:27:06;2.63;;;2.43;;
29294;SDS011;16305;48.566;8.846;2022-08-25T01:29:32;2.83;;;2.60;;
29294;SDS011;16305;48.566;8.846;2022-08-25T01:32:01;3.17;;;2.50;;
29294;SDS011;16305;48.566;8.846;2022-08-25T01:34:30;2.93;;;2.63;;
29294;SDS011;16305;48.566;8.846;2022-08-25T01:36:58;3.30;;;3.00;;
29294;SDS011;16305;48.566;8.846;2022-08-25T01:39:25;2.67;;;2.30;;
29294;SDS011;16305;48.566;8.846;2022-08-25T01:44:31;3.23;;;2.60;;
29294;SDS011;16305;48.566;8.846;2022-08-25T01:46:59;3.03;;;2.73;;
29294;SDS011;16305;48.566;8.846;2022-08-25T01:49:26;3.00;;;2.70;;
29294;SDS011;16305;48.566;8.846;2022-08-25T01:51:54;4.23;;;3.00;;
29294;SDS011;16305;48.566;8.846;2022-08-25T01:54:24;2.87;;;2.60;;
29294;SDS011;16305;48.566;8.846;2022-08-25T01:56:50;4.00;;;2.60;;
29294;SDS011;16305;48.566;8.846;2022-08-25T01:59:16;2.87;;;2.57;;
29294;SDS011;16305;48.566;8.846;2022-08-25T02:01:43;3.37;;;2.67;;
29294;SDS011;16305;48.566;8.846;2022-08-25T02:04:09;3.20;;;2.90;;
29294;SDS011;16305;48.566;8.846;2022-08-25T02:06:36;3.67;;;3.00;;
29294;SDS011;16305;48.566;8.846;2022-08-25T02:09:04;3.33;;;2.67;;
29294;SDS011;16305;48.566;8.846;2022-08-25T02:11:42;2.80;;;2.53;;
29294;SDS011;16305;48.566;8.846;2022-08-25T02:14:11;3.27;;;2.90;;
29294;SDS011;16305;48.566;8.846;2022-08-25T02:16:38;3.90;;;2.70;;
29294;SDS011;16305;48.566;8.846;2022-08-25T02:19:06;2.87;;;2.57;;
29294;SDS011;16305;48.566;8.846;2022-08-25T02:21:34;3.80;;;2.70;;
29294;SDS011;16305;48.566;8.846;2022-08-25T02:24:00;2.93;;;2.63;;
29294;SDS011;16305;48.566;8.846;2022-08-25T02:26:26;2.83;;;2.27;;
29294;SDS011;16305;48.566;8.846;2022-08-25T02:28:52;4.07;;;2.73;;
29294;SDS011;16305;48.566;8.846;2022-08-25T02:31:19;2.93;;;2.73;;
29294;SDS011;16305;48.566;8.846;2022-08-25T02:33:46;3.47;;;2.60;;
29294;SDS011;16305;48.566;8.846;2022-08-25T02:36:12;3.57;;;3.10;;
29294;SDS011;16305;48.566;8.846;2022-08-25T02:38:38;3.77;;;2.77;;
29294;SDS011;16305;48.566;8.846;2022-08-25T02:41:10;3.17;;;2.67;;
29294;SDS011;16305;48.566;8.846;2022-08-25T02:43:41;3.40;;;3.10;;
29294;SDS011;16305;48.566;8.846;2022-08-25T02:46:08;3.27;;;2.90;;
29294;SDS011;16305;48.566;8.846;2022-08-25T02:48:35;3.33;;;3.00;;
29294;SDS011;16305;48.566;8.846;2022-08-25T02:51:02;3.60;;;3.30;;
29294;SDS011;16305;48.566;8.846;2022-08-25T02:53:29;4.27;;;3.20;;
29294;SDS011;16305;48.566;8.846;2022-08-25T02:55:54;3.40;;;2.90;;
29294;SDS011;16305;48.566;8.846;2022-08-25T02:58:20;4.37;;;3.10;;
29294;SDS011;16305;48.566;8.846;2022-08-25T03:00:46;3.50;;;3.20;;
29294;SDS011;16305;48.566;8.846;2022-08-25T03:03:12;4.57;;;3.63;;
29294;SDS011;16305;48.566;8.846;2022-08-25T03:05:38;4.03;;;3.47;;
29294;SDS011;16305;48.566;8.846;2022-08-25T03:08:04;4.07;;;3.67;;
29294;SDS011;16305;48.566;8.846;2022-08-25T03:10:31;3.93;;;3.53;;
29294;SDS011;16305;48.566;8.846;2022-08-25T03:12:57;5.30;;;3.70;;
29294;SDS011;16305;48.566;8.846;2022-08-25T03:15:23;4.27;;;3.47;;
29294;SDS011;16305;48.566;8.846;2022-08-25T03:17:51;5.27;;;3.97;;
29294;SDS011;16305;48.566;8.846;2022-08-25T03:20:18;4.93;;;3.93;;
29294;SDS011;16305;48.566;8.846;2022-08-25T03:22:45;4.60;;;4.03;;
29294;SDS011;16305;48.566;8.846;2022-08-25T03:25:10;4.57;;;4.10;;
29294;SDS011;16305;48.566;8.846;2022-08-25T03:27:55;8.77;;;3.97;;
29294;SDS011;16305;48.566;8.846;2022-08-25T03:30:21;5.87;;;4.30;;
29294;SDS011;16305;48.566;8.846;2022-08-25T03:32:46;5.57;;;4.43;;
29294;SDS011;16305;48.566;8.846;2022-08-25T03:35:12;6.03;;;4.83;;
29294;SDS011;16305;48.566;8.846;2022-08-25T03:37:38;4.63;;;4.17;;
29294;SDS011;16305;48.566;8.846;2022-08-25T03:40:05;3.87;;;3.57;;
29294;SDS011;16305;48.566;8.846;2022-08-25T03:42:33;4.90;;;4.40;;
29294;SDS011;16305;48.566;8.846;2022-08-25T03:45:00;4.90;;;4.07;;
29294;SDS011;16305;48.566;8.846;2022-08-25T03:47:27;4.70;;;4.20;;
29294;SDS011;16305;48.566;8.846;2022-08-25T03:49:53;6.03;;;4.47;;
29294;SDS011;16305;48.566;8.846;2022-08-25T03:52:19;6.23;;;4.53;;
29294;SDS011;16305;48.566;8.846;2022-08-25T03:54:45;5.27;;;4.43;;
29294;SDS011;16305;48.566;8.846;2022-08-25T03:57:11;5.60;;;4.53;;
29294;SDS011;16305;48.566;8.846;2022-08-25T03:59:36;6.03;;;4.77;;
29294;SDS011;16305;48.566;8.846;2022-08-25T04:02:03;6.07;;;4.83;;
29294;SDS011;16305;48.566;8.846;2022-08-25T04:04:30;5.83;;;4.63;;
29294;SDS011;16305;48.566;8.846;2022-08-25T04:06:55;5.47;;;4.90;;
29294;SDS011;16305;48.566;8.846;2022-08-25T04:09:21;5.20;;;4.63;;
29294;SDS011;16305;48.566;8.846;2022-08-25T04:11:47;5.50;;;4.87;;
29294;SDS011;16305;48.566;8.846;2022-08-25T04:14:12;6.43;;;4.57;;
29294;SDS011;16305;48.566;8.846;2022-08-25T04:16:38;5.83;;;5.07;;
29294;SDS011;16305;48.566;8.846;2022-08-25T04:19:04;5.47;;;4.47;;
29294;SDS011;16305;48.566;8.846;2022-08-25T04:21:33;7.53;;;4.37;;
29294;SDS011;16305;48.566;8.846;2022-08-25T04:24:00;5.23;;;4.60;;
29294;SDS011;16305;48.566;8.846;2022-08-25T04:26:30;5.30;;;4.80;;
29294;SDS011;16305;48.566;8.846;2022-08-25T04:28:58;5.73;;;4.97;;
29294;SDS011;16305;48.566;8.846;2022-08-25T04:31:26;5.77;;;5.13;;
29294;SDS011;16305;48.566;8.846;2022-08-25T04:33:53;6.70;;;5.30;;
29294;SDS011;16305;48.566;8.846;2022-08-25T04:36:19;6.17;;;5.57;;
29294;SDS011;16305;48.566;8.846;2022-08-25T04:38:47;7.90;;;6.03;;
29294;SDS011;16305;48.566;8.846;2022-08-25T04:41:14;8.37;;;5.27;;
29294;SDS011;16305;48.566;8.846;2022-08-25T04:43:42;7.77;;;5.33;;
29294;SDS011;16305;48.566;8.846;2022-08-25T04:46:16;7.20;;;5.20;;
29294;SDS011;16305;48.566;8.846;2022-08-25T04:48:44;6.57;;;5.77;;
29294;SDS011;16305;48.566;8.846;2022-08-25T04:51:11;7.40;;;5.70;;
29294;SDS011;16305;48.566;8.846;2022-08-25T04:53:39;7.50;;;5.30;;
29294;SDS011;16305;48.566;8.846;2022-08-25T04:56:06;8.00;;;5.40;;
29294;SDS011;16305;48.566;8.846;2022-08-25T04:58:33;7.03;;;5.50;;
29294;SDS011;16305;48.566;8.846;2022-08-25T05:01:06;7.03;;;6.03;;
29294;SDS011;16305;48.566;8.846;2022-08-25T05:03:34;7.03;;;5.53;;
29294;SDS011;16305;48.566;8.846;2022-08-25T05:06:00;6.07;;;5.47;;
29294;SDS011;16305;48.566;8.846;2022-08-25T05:08:26;6.30;;;5.70;;
29294;SDS011;16305;48.566;8.846;2022-08-25T05:10:52;7.33;;;5.90;;
29294;SDS011;16305;48.566;8.846;2022-08-25T05:13:20;6.63;;;5.17;;
29294;SDS011;16305;48.566;8.846;2022-08-25T05:15:57;6.30;;;5.30;;
29294;SDS011;16305;48.566;8.846;2022-08-25T05:18:24;8.87;;;5.80;;
29294;SDS011;16305;48.566;8.846;2022-08-25T05:20:51;7.77;;;5.87;;
29294;SDS011;16305;48.566;8.846;2022-08-25T05:23:18;5.97;;;5.30;;
29294;SDS011;16305;48.566;8.846;2022-08-25T05:25:45;7.10;;;5.47;;
29294;SDS011;16305;48.566;8.846;2022-08-25T05:28:11;6.90;;;5.60;;
29294;SDS011;16305;48.566;8.846;2022-08-25T05:30:38;6.90;;;5.97;;
29294;SDS011;16305;48.566;8.846;2022-08-25T05:33:05;6.17;;;5.57;;
29294;SDS011;16305;48.566;8.846;2022-08-25T05:35:31;6.30;;;5.30;;
29294;SDS011;16305;48.566;8.846;2022-08-25T05:37:57;7.37;;;5.80;;
29294;SDS011;16305;48.566;8.846;2022-08-25T05:40:22;6.40;;;5.47;;
29294;SDS011;16305;48.566;8.846;2022-08-25T05:42:49;6.90;;;5.33;;
29294;SDS011;16305;48.566;8.846;2022-08-25T05:45:14;6.23;;;5.60;;
29294;SDS011;16305;48.566;8.846;2022-08-25T05:47:41;7.17;;;6.10;;
29294;SDS011;16305;48.566;8.846;2022-08-25T05:50:07;7.00;;;5.67;;
29294;SDS011;16305;48.566;8.846;2022-08-25T05:52:33;7.77;;;5.57;;
29294;SDS011;16305;48.566;8.846;2022-08-25T05:54:59;8.67;;;5.67;;
29294;SDS011;16305;48.566;8.846;2022-08-25T05:57:24;6.97;;;5.40;;
29294;SDS011;16305;48.566;8.846;2022-08-25T05:59:50;6.77;;;5.23;;
29294;SDS011;16305;48.566;8.846;2022-08-25T06:02:15;5.70;;;5.03;;
29294;SDS011;16305;48.566;8.846;2022-08-25T06:04:59;7.63;;;4.67;;
29294;SDS011;16305;48.566;8.846;2022-08-25T06:07:25;7.17;;;5.80;;
29294;SDS011;16305;48.566;8.846;2022-08-25T06:09:51;5.83;;;5.07;;
29294;SDS011;16305;48.566;8.846;2022-08-25T06:12:16;7.20;;;5.03;;
29294;SDS011;16305;48.566;8.846;2022-08-25T06:14:43;6.80;;;5.73;;
29294;SDS011;16305;48.566;8.846;2022-08-25T06:17:08;7.87;;;5.10;;
29294;SDS011;16305;48.566;8.846;2022-08-25T06:19:34;6.83;;;4.90;;
29294;SDS011;16305;48.566;8.846;2022-08-25T06:22:01;8.57;;;4.90;;
29294;SDS011;16305;48.566;8.846;2022-08-25T06:24:27;11.17;;;5.20;;
29294;SDS011;16305;48.566;8.846;2022-08-25T06:26:53;5.73;;;5.00;;
29294;SDS011;16305;48.566;8.846;2022-08-25T06:29:20;8.23;;;4.67;;
29294;SDS011;16305;48.566;8.846;2022-08-25T06:34:14;5.47;;;4.53;;
29294;SDS011;16305;48.566;8.846;2022-08-25T06:36:40;5.10;;;4.60;;
29294;SDS011;16305;48.566;8.846;2022-08-25T06:39:06;7.30;;;5.10;;
29294;SDS011;16305;48.566;8.846;2022-08-25T06:41:32;6.83;;;5.13;;
29294;SDS011;16305;48.566;8.846;2022-08-25T06:43:58;9.57;;;5.00;;
29294;SDS011;16305;48.566;8.846;2022-08-25T06:46:24;7.70;;;4.90;;
29294;SDS011;16305;48.566;8.846;2022-08-25T06:48:52;5.50;;;5.00;;
29294;SDS011;16305;48.566;8.846;2022-08-25T06:51:19;5.17;;;4.67;;
29294;SDS011;16305;48.566;8.846;2022-08-25T06:53:46;5.23;;;4.73;;
29294;SDS011;16305;48.566;8.846;2022-08-25T06:56:16;4.60;;;4.13;;
29294;SDS011;16305;48.566;8.846;2022-08-25T06:58:44;4.97;;;4.40;;
29294;SDS011;16305;48.566;8.846;2022-08-25T07:01:10;6.97;;;5.30;;
29294;SDS011;16305;48.566;8.846;2022-08-25T07:03:41;4.87;;;4.40;;
29294;SDS011;16305;48.566;8.846;2022-08-25T07:06:08;4.93;;;4.43;;
29294;SDS011;16305;48.566;8.846;2022-08-25T07:08:34;5.17;;;4.67;;
29294;SDS011;16305;48.566;8.846;2022-08-25T07:11:07;7.00;;;4.80;;
29294;SDS011;16305;48.566;8.846;2022-08-25T07:13:33;7.17;;;4.80;;
29294;SDS011;16305;48.566;8.846;2022-08-25T07:15:59;5.10;;;4.60;;
29294;SDS011;16305;48.566;8.846;2022-08-25T07:18:25;8.80;;;5.23;;
29294;SDS011;16305;48.566;8.846;2022-08-25T07:20:51;5.10;;;4.43;;
29294;SDS011;16305;48.566;8.846;2022-08-25T07:23:17;6.20;;;4.50;;
29294;SDS011;16305;48.566;8.846;2022-08-25T07:25:44;4.80;;;4.30;;
29294;SDS011;16305;48.566;8.846;2022-08-25T07:28:10;6.70;;;4.83;;
29294;SDS011;16305;48.566;8.846;2022-08-25T07:30:36;5.97;;;4.50;;
29294;SDS011;16305;48.566;8.846;2022-08-25T07:33:01;7.77;;;5.60;;
29294;SDS011;16305;48.566;8.846;2022-08-25T07:35:27;7.23;;;5.57;;
29294;SDS011;16305;48.566;8.846;2022-08-25T07:37:56;5.20;;;4.70;;
29294;SDS011;16305;48.566;8.846;2022-08-25T07:40:29;5.53;;;4.90;;
29294;SDS011;16305;48.566;8.846;2022-08-25T07:42:58;6.77;;;5.07;;
29294;SDS011;16305;48.566;8.846;2022-08-25T07:45:26;5.77;;;5.10;;
29294;SDS011;16305;48.566;8.846;2022-08-25T07:48:02;6.30;;;4.90;;
29294;SDS011;16305;48.566;8.846;2022-08-25T07:50:30;6.40;;;4.83;;
29294;SDS011;16305;48.566;8.846;2022-08-25T07:52:57;6.57;;;5.07;;
29294;SDS011;16305;48.566;8.846;2022-08-25T07:55:24;6.50;;;4.97;;
29294;SDS011;16305;48.566;8.846;2022-08-25T07:57:51;5.47;;;4.87;;
29294;SDS011;16305;48.566;8.846;2022-08-25T08:00:18;4.60;;;4.20;;
29294;SDS011;16305;48.566;8.846;2022-08-25T08:02:44;5.60;;;5.00;;
29294;SDS011;16305;48.566;8.846;2022-08-25T08:05:10;6.90;;;4.63;;
29294;SDS011;16305;48.566;8.846;2022-08-25T08:07:38;5.40;;;4.67;;
29294;SDS011;16305;48.566;8.846;2022-08-25T08:10:05;6.47;;;4.63;;
29294;SDS011;16305;48.566;8.846;2022-08-25T08:12:32;5.20;;;4.23;;
29294;SDS011;16305;48.566;8.846;2022-08-25T08:14:59;4.80;;;4.30;;
29294;SDS011;16305;48.566;8.846;2022-08-25T08:17:25;6.67;;;4.50;;
29294;SDS011;16305;48.566;8.846;2022-08-25T08:19:51;6.07;;;4.47;;
29294;SDS011;16305;48.566;8.846;2022-08-25T08:22:17;5.80;;;5.20;;
29294;SDS011;16305;48.566;8.846;2022-08-25T08:24:43;5.13;;;4.63;;
29294;SDS011;16305;48.566;8.846;2022-08-25T08:27:10;5.00;;;4.50;;
29294;SDS011;16305;48.566;8.846;2022-08-25T08:29:37;4.93;;;4.43;;
29294;SDS011;16305;48.566;8.846;2022-08-25T08:32:05;5.07;;;4.57;;
29294;SDS011;16305;48.566;8.846;2022-08-25T08:34:33;4.97;;;4.37;;
29294;SDS011;16305;48.566;8.846;2022-08-25T08:37:00;10.20;;;4.67;;
29294;SDS011;16305;48.566;8.846;2022-08-25T08:39:26;9.37;;;4.83;;
29294;SDS011;16305;48.566;8.846;2022-08-25T08:42:01;7.30;;;4.53;;
29294;SDS011;16305;48.566;8.846;2022-08-25T08:47:20;4.90;;;4.40;;
29294;SDS011;16305;48.566;8.846;2022-08-25T08:50:09;4.63;;;4.23;;
29294;SDS011;16305;48.566;8.846;2022-08-25T08:55:36;5.60;;;3.93;;
29294;SDS011;16305;48.566;8.846;2022-08-25T08:58:36;4.70;;;3.87;;
29294;SDS011;16305;48.566;8.846;2022-08-25T09:01:12;4.80;;;4.27;;
29294;SDS011;16305;48.566;8.846;2022-08-25T09:03:50;4.83;;;4.07;;
29294;SDS011;16305;48.566;8.846;2022-08-25T09:06:24;4.13;;;3.73;;
29294;SDS011;16305;48.566;8.846;2022-08-25T09:09:02;4.47;;;3.93;;
29294;SDS011;16305;48.566;8.846;2022-08-25T09:11:45;4.23;;;3.73;;
29294;SDS011;16305;48.566;8.846;2022-08-25T09:17:44;5.33;;;3.93;;
29294;SDS011;16305;48.566;8.846;2022-08-25T09:20:42;5.13;;;3.90;;
29294;SDS011;16305;48.566;8.846;2022-08-25T09:26:12;4.87;;;4.47;;
29294;SDS011;16305;48.566;8.846;2022-08-25T09:28:48;4.50;;;4.07;;
29294;SDS011;16305;48.566;8.846;2022-08-25T09:33:52;5.33;;;4.40;;
29294;SDS011;16305;48.566;8.846;2022-08-25T09:36:21;4.70;;;4.10;;
29294;SDS011;16305;48.566;8.846;2022-08-25T09:38:47;5.33;;;4.13;;
29294;SDS011;16305;48.566;8.846;2022-08-25T09:41:16;4.63;;;4.17;;
29294;SDS011;16305;48.566;8.846;2022-08-25T09:43:59;6.37;;;3.77;;
29294;SDS011;16305;48.566;8.846;2022-08-25T09:46:28;5.33;;;4.20;;
29294;SDS011;16305;48.566;8.846;2022-08-25T09:48:54;4.30;;;3.87;;
29294;SDS011;16305;48.566;8.846;2022-08-25T09:51:36;5.80;;;4.40;;
29294;SDS011;16305;48.566;8.846;2022-08-25T09:59:24;6.23;;;4.00;;
29294;SDS011;16305;48.566;8.846;2022-08-25T10:01:57;4.30;;;3.83;;
29294;SDS011;16305;48.566;8.846;2022-08-25T10:04:31;5.57;;;4.00;;
29294;SDS011;16305;48.566;8.846;2022-08-25T10:07:01;4.47;;;3.67;;
29294;SDS011;16305;48.566;8.846;2022-08-25T10:09:38;4.07;;;3.63;;
29294;SDS011;16305;48.566;8.846;2022-08-25T10:12:29;3.87;;;3.47;;
29294;SDS011;16305;48.566;8.846;2022-08-25T10:14:55;5.30;;;3.90;;
29294;SDS011;16305;48.566;8.846;2022-08-25T10:17:28;4.00;;;3.60;;
29294;SDS011;16305;48.566;8.846;2022-08-25T10:22:51;3.83;;;3.53;;
29294;SDS011;16305;48.566;8.846;2022-08-25T10:25:21;3.97;;;3.60;;
29294;SDS011;16305;48.566;8.846;2022-08-25T10:33:26;3.70;;;3.40;;
29294;SDS011;16305;48.566;8.846;2022-08-25T10:36:20;3.90;;;3.50;;
29294;SDS011;16305;48.566;8.846;2022-08-25T10:38:56;3.93;;;3.57;;
29294;SDS011;16305;48.566;8.846;2022-08-25T10:50:22;3.67;;;3.37;;
29294;SDS011;16305;48.566;8.846;2022-08-25T10:52:59;3.40;;;3.10;;
29294;SDS011;16305;48.566;8.846;2022-08-25T11:03:59;3.47;;;3.17;;
29294;SDS011;16305;48.566;8.846;2022-08-25T11:06:47;2.90;;;2.70;;
29294;SDS011;16305;48.566;8.846;2022-08-25T11:09:20;3.10;;;2.90;;
29294;SDS011;16305;48.566;8.846;2022-08-25T11:11:56;2.90;;;2.70;;
29294;SDS011;16305;48.566;8.846;2022-08-25T11:14:32;2.90;;;2.60;;
29294;SDS011;16305;48.566;8.846;2022-08-25T11:17:19;3.23;;;2.93;;
29294;SDS011;16305;48.566;8.846;2022-08-25T11:19:58;3.07;;;2.70;;
29294;SDS011;16305;48.566;8.846;2022-08-25T11:22:33;2.97;;;2.73;;
29294;SDS011;16305;48.566;8.846;2022-08-25T11:28:05;2.47;;;2.27;;
29294;SDS011;16305;48.566;8.846;2022-08-25T11:30:35;3.27;;;2.87;;
29294;SDS011;16305;48.566;8.846;2022-08-25T11:33:02;5.93;;;2.42;;
29294;SDS011;16305;48.566;8.846;2022-08-25T11:35:34;2.60;;;2.13;;
29294;SDS011;16305;48.566;8.846;2022-08-25T11:38:09;2.70;;;2.45;;
29294;SDS011;16305;48.566;8.846;2022-08-25T11:41:13;3.45;;;2.33;;
29294;SDS011;16305;48.566;8.846;2022-08-25T11:49:09;2.60;;;2.40;;
29294;SDS011;16305;48.566;8.846;2022-08-25T11:51:55;4.00;;;2.47;;
29294;SDS011;16305;48.566;8.846;2022-08-25T11:54:34;2.72;;;2.15;;
29294;SDS011;16305;48.566;8.846;2022-08-25T11:57:06;2.63;;;2.43;;
29294;SDS011;16305;48.566;8.846;2022-08-25T12:02:33;2.50;;;2.30;;
29294;SDS011;16305;48.566;8.846;2022-08-25T12:05:09;3.30;;;2.83;;
29294;SDS011;16305;48.566;8.846;2022-08-25T12:16:03;3.67;;;2.38;;
29294;SDS011;16305;48.566;8.846;2022-08-25T12:23:30;3.65;;;2.38;;
29294;SDS011;16305;48.566;8.846;2022-08-25T12:26:00;2.10;;;1.90;;
29294;SDS011;16305;48.566;8.846;2022-08-25T12:31:19;2.35;;;2.10;;
29294;SDS011;16305;48.566;8.846;2022-08-25T12:33:56;3.72;;;2.20;;
29294;SDS011;16305;48.566;8.846;2022-08-25T12:36:38;2.85;;;2.30;;
29294;SDS011;16305;48.566;8.846;2022-08-25T12:39:19;2.72;;;2.20;;
29294;SDS011;16305;48.566;8.846;2022-08-25T12:42:00;1.98;;;1.88;;
29294;SDS011;16305;48.566;8.846;2022-08-25T12:49:48;2.50;;;1.92;;
29294;SDS011;16305;48.566;8.846;2022-08-25T12:52:15;2.65;;;2.45;;
29294;SDS011;16305;48.566;8.846;2022-08-25T12:54:49;2.80;;;2.50;;
29294;SDS011;16305;48.566;8.846;2022-08-25T12:57:26;2.90;;;2.65;;
29294;SDS011;16305;48.566;8.846;2022-08-25T13:00:09;4.68;;;2.17;;
29294;SDS011;16305;48.566;8.846;2022-08-25T13:11:22;2.30;;;2.10;;
29294;SDS011;16305;48.566;8.846;2022-08-25T13:14:13;2.22;;;2.03;;
29294;SDS011;16305;48.566;8.846;2022-08-25T13:16:52;2.15;;;1.95;;
29294;SDS011;16305;48.566;8.846;2022-08-25T13:19:19;2.22;;;2.03;;
29294;SDS011;16305;48.566;8.846;2022-08-25T13:21:45;3.22;;;2.25;;
29294;SDS011;16305;48.566;8.846;2022-08-25T13:24:21;2.28;;;2.08;;
29294;SDS011;16305;48.566;8.846;2022-08-25T13:26:52;2.15;;;1.95;;
29294;SDS011;16305;48.566;8.846;2022-08-25T13:29:48;3.25;;;1.80;;
29294;SDS011;16305;48.566;8.846;2022-08-25T13:32:16;2.20;;;1.88;;
29294;SDS011;16305;48.566;8.846;2022-08-25T13:37:43;1.88;;;1.70;;
29294;SDS011;16305;48.566;8.846;2022-08-25T13:40:20;1.98;;;1.85;;
29294;SDS011;16305;48.566;8.846;2022-08-25T13:42:49;2.33;;;2.13;;
29294;SDS011;16305;48.566;8.846;2022-08-25T13:45:18;2.03;;;1.90;;
29294;SDS011;16305;48.566;8.846;2022-08-25T13:47:47;2.13;;;1.83;;
29294;SDS011;16305;48.566;8.846;2022-08-25T13:50:15;1.83;;;1.70;;
29294;SDS011;16305;48.566;8.846;2022-08-25T13:52:45;4.10;;;1.85;;
29294;SDS011;16305;48.566;8.846;2022-08-25T13:55:18;2.15;;;1.95;;
29294;SDS011;16305;48.566;8.846;2022-08-25T13:57:49;2.28;;;2.08;;
29294;SDS011;16305;48.566;8.846;2022-08-25T14:00:24;2.22;;;2.03;;
29294;SDS011;16305;48.566;8.846;2022-08-25T14:03:30;2.25;;;2.05;;
29294;SDS011;16305;48.566;8.846;2022-08-25T14:08:39;2.03;;;1.90;;
29294;SDS011;16305;48.566;8.846;2022-08-25T14:13:34;4.63;;;2.00;;
29294;SDS011;16305;48.566;8.846;2022-08-25T14:16:05;1.90;;;1.80;;
29294;SDS011;16305;48.566;8.846;2022-08-25T14:18:33;4.75;;;1.80;;
29294;SDS011;16305;48.566;8.846;2022-08-25T14:20:59;2.58;;;2.30;;
29294;SDS011;16305;48.566;8.846;2022-08-25T14:23:32;2.13;;;1.92;;
29294;SDS011;16305;48.566;8.846;2022-08-25T14:26:00;2.30;;;2.10;;
29294;SDS011;16305;48.566;8.846;2022-08-25T14:28:26;2.08;;;1.80;;
29294;SDS011;16305;48.566;8.846;2022-08-25T14:30:54;1.75;;;1.65;;
29294;SDS011;16305;48.566;8.846;2022-08-25T14:33:23;2.35;;;2.15;;
29294;SDS011;16305;48.566;8.846;2022-08-25T14:35:53;1.88;;;1.77;;
29294;SDS011;16305;48.566;8.846;2022-08-25T14:38:21;2.88;;;2.08;;
29294;SDS011;16305;48.566;8.846;2022-08-25T14:40:47;2.50;;;2.30;;
29294;SDS011;16305;48.566;8.846;2022-08-25T14:43:13;2.60;;;1.80;;
29294;SDS011;16305;48.566;8.846;2022-08-25T14:45:40;2.40;;;2.13;;
29294;SDS011;16305;48.566;8.846;2022-08-25T14:48:11;2.53;;;2.05;;
29294;SDS011;16305;48.566;8.846;2022-08-25T14:50:41;2.20;;;2.00;;
29294;SDS011;16305;48.566;8.846;2022-08-25T14:53:09;2.25;;;1.85;;
29294;SDS011;16305;48.566;8.846;2022-08-25T14:55:35;1.80;;;1.50;;
29294;SDS011;16305;48.566;8.846;2022-08-25T14:58:01;2.22;;;2.03;;
29294;SDS011;16305;48.566;8.846;2022-08-25T15:00:27;3.63;;;1.80;;
29294;SDS011;16305;48.566;8.846;2022-08-25T15:02:52;3.05;;;1.70;;
29294;SDS011;16305;48.566;8.846;2022-08-25T15:05:20;2.63;;;2.42;;
29294;SDS011;16305;48.566;8.846;2022-08-25T15:07:51;2.40;;;1.60;;
29294;SDS011;16305;48.566;8.846;2022-08-25T15:10:36;2.70;;;1.55;;
29294;SDS011;16305;48.566;8.846;2022-08-25T15:13:02;1.90;;;1.63;;
29294;SDS011;16305;48.566;8.846;2022-08-25T15:15:28;2.50;;;1.27;;
29294;SDS011;16305;48.566;8.846;2022-08-25T15:17:54;1.88;;;1.67;;
29294;SDS011;16305;48.566;8.846;2022-08-25T15:20:20;1.58;;;1.48;;
29294;SDS011;16305;48.566;8.846;2022-08-25T15:22:45;2.00;;;1.80;;
29294;SDS011;16305;48.566;8.846;2022-08-25T15:25:12;1.80;;;1.35;;
29294;SDS011;16305;48.566;8.846;2022-08-25T15:27:38;2.15;;;1.63;;
29294;SDS011;16305;48.566;8.846;2022-08-25T15:30:04;3.85;;;1.50;;
29294;SDS011;16305;48.566;8.846;2022-08-25T15:32:29;1.70;;;1.60;;
29294;SDS011;16305;48.566;8.846;2022-08-25T15:34:55;3.05;;;1.20;;
29294;SDS011;16305;48.566;8.846;2022-08-25T15:37:21;1.70;;;1.25;;
29294;SDS011;16305;48.566;8.846;2022-08-25T15:39:47;1.58;;;1.48;;
29294;SDS011;16305;48.566;8.846;2022-08-25T15:42:13;1.50;;;1.40;;
29294;SDS011;16305;48.566;8.846;2022-08-25T15:44:40;3.38;;;1.40;;
29294;SDS011;16305;48.566;8.846;2022-08-25T15:47:08;2.95;;;1.63;;
29294;SDS011;16305;48.566;8.846;2022-08-25T15:49:34;2.00;;;1.80;;
29294;SDS011;16305;48.566;8.846;2022-08-25T15:51:59;4.80;;;1.80;;
29294;SDS011;16305;48.566;8.846;2022-08-25T15:54:26;1.50;;;1.40;;
29294;SDS011;16305;48.566;8.846;2022-08-25T15:56:52;1.90;;;1.50;;
29294;SDS011;16305;48.566;8.846;2022-08-25T15:59:18;1.60;;;1.50;;
29294;SDS011;16305;48.566;8.846;2022-08-25T16:01:44;1.67;;;1.58;;
29294;SDS011;16305;48.566;8.846;2022-08-25T16:04:10;1.40;;;1.30;;
29294;SDS011;16305;48.566;8.846;2022-08-25T16:06:36;1.77;;;1.67;;
29294;SDS011;16305;48.566;8.846;2022-08-25T16:09:02;1.67;;;1.50;;
29294;SDS011;16305;48.566;8.846;2022-08-25T16:11:29;3.25;;;1.70;;
29294;SDS011;16305;48.566;8.846;2022-08-25T16:13:58;1.48;;;1.38;;
29294;SDS011;16305;48.566;8.846;2022-08-25T16:16:25;1.60;;;1.50;;
29294;SDS011;16305;48.566;8.846;2022-08-25T16:18:52;2.30;;;1.50;;
29294;SDS011;16305;48.566;8.846;2022-08-25T16:21:21;1.50;;;1.40;;
29294;SDS011;16305;48.566;8.846;2022-08-25T16:23:55;3.03;;;1.63;;
29294;SDS011;16305;48.566;8.846;2022-08-25T16:26:22;2.33;;;1.67;;
29294;SDS011;16305;48.566;8.846;2022-08-25T16:28:48;2.15;;;1.50;;
29294;SDS011;16305;48.566;8.846;2022-08-25T16:31:14;2.40;;;1.40;;
29294;SDS011;16305;48.566;8.846;2022-08-25T16:33:41;1.83;;;1.70;;
29294;SDS011;16305;48.566;8.846;2022-08-25T16:36:16;1.50;;;1.40;;
29294;SDS011;16305;48.566;8.846;2022-08-25T16:38:44;5.40;;;1.73;;
29294;SDS011;16305;48.566;8.846;2022-08-25T16:41:12;3.25;;;1.70;;